Stanfield, North Carolina
Current Conditions -  °F | °C
As of 11:53 PM on Monday 20 Oct 2014 (Local Time) from KEQY Reporting Station
Light Rain Light Rain  
Wind Chill: 56°   Ceiling: 10000
Heat Index: 56°   Visibility: 10mi
Dew Point: 49°   Wind: 5mph
Humidity: 77%   Direction: 250°WSW
Pressure: 29.99"   Gusts: NA
Location:  35.23°N, 80.43°W
Report Text: KEQY 210353Z AUTO 25004KT 10SM -RA BKN100 BKN120 13/09 A2999 RMK AO2 RAB49 SLP161 P0000 T01330094
Loading
Personal Weather Stations






























Interactive Weather Map
Tropical Storm Tracking
New forecast layout! Learn more

10-Day Weather Forecast

Advertisements
Track Severe Weather on mobile